sensor_id;sensor_type;location;lat;lon;timestamp;P1;durP1;ratioP1;P2;durP2;ratioP2
22652;SDS011;11493;43.344;26.226;2023-04-16T00:02:00;6.90;;;3.33;;
22652;SDS011;11493;43.344;26.226;2023-04-16T00:04:27;11.35;;;3.10;;
22652;SDS011;11493;43.344;26.226;2023-04-16T00:06:55;9.43;;;2.97;;
22652;SDS011;11493;43.344;26.226;2023-04-16T00:09:22;9.20;;;2.88;;
22652;SDS011;11493;43.344;26.226;2023-04-16T00:11:49;14.48;;;3.08;;
22652;SDS011;11493;43.344;26.226;2023-04-16T00:14:16;8.35;;;2.60;;
22652;SDS011;11493;43.344;26.226;2023-04-16T00:16:43;4.85;;;2.33;;
22652;SDS011;11493;43.344;26.226;2023-04-16T00:19:10;10.82;;;2.63;;
22652;SDS011;11493;43.344;26.226;2023-04-16T00:21:37;8.10;;;6.00;;
22652;SDS011;11493;43.344;26.226;2023-04-16T00:24:04;6.38;;;4.65;;
22652;SDS011;11493;43.344;26.226;2023-04-16T00:26:31;9.88;;;5.25;;
22652;SDS011;11493;43.344;26.226;2023-04-16T00:28:58;10.07;;;5.07;;
22652;SDS011;11493;43.344;26.226;2023-04-16T00:31:26;7.72;;;4.43;;
22652;SDS011;11493;43.344;26.226;2023-04-16T00:33:55;10.20;;;4.68;;
22652;SDS011;11493;43.344;26.226;2023-04-16T00:36:22;6.82;;;4.68;;
22652;SDS011;11493;43.344;26.226;2023-04-16T00:38:50;12.55;;;4.78;;
22652;SDS011;11493;43.344;26.226;2023-04-16T00:41:17;8.25;;;4.93;;
22652;SDS011;11493;43.344;26.226;2023-04-16T00:43:44;9.32;;;4.07;;
22652;SDS011;11493;43.344;26.226;2023-04-16T00:46:11;8.35;;;5.28;;
22652;SDS011;11493;43.344;26.226;2023-04-16T00:48:39;10.55;;;5.60;;
22652;SDS011;11493;43.344;26.226;2023-04-16T00:51:07;10.05;;;4.82;;
22652;SDS011;11493;43.344;26.226;2023-04-16T00:53:35;9.68;;;4.93;;
22652;SDS011;11493;43.344;26.226;2023-04-16T00:56:03;10.35;;;3.90;;
22652;SDS011;11493;43.344;26.226;2023-04-16T00:58:32;9.18;;;3.60;;
22652;SDS011;11493;43.344;26.226;2023-04-16T01:01:00;15.45;;;3.15;;
22652;SDS011;11493;43.344;26.226;2023-04-16T01:03:49;10.50;;;4.00;;
22652;SDS011;11493;43.344;26.226;2023-04-16T01:06:16;7.75;;;3.35;;
22652;SDS011;11493;43.344;26.226;2023-04-16T01:08:44;8.27;;;3.78;;
22652;SDS011;11493;43.344;26.226;2023-04-16T01:11:13;6.97;;;4.03;;
22652;SDS011;11493;43.344;26.226;2023-04-16T01:13:40;11.65;;;4.15;;
22652;SDS011;11493;43.344;26.226;2023-04-16T01:16:08;8.68;;;3.72;;
22652;SDS011;11493;43.344;26.226;2023-04-16T01:18:37;6.35;;;3.65;;
22652;SDS011;11493;43.344;26.226;2023-04-16T01:21:04;13.05;;;4.18;;
22652;SDS011;11493;43.344;26.226;2023-04-16T01:23:31;8.15;;;3.95;;
22652;SDS011;11493;43.344;26.226;2023-04-16T01:25:58;12.80;;;4.15;;
22652;SDS011;11493;43.344;26.226;2023-04-16T01:28:25;17.77;;;4.63;;
22652;SDS011;11493;43.344;26.226;2023-04-16T01:30:52;11.07;;;4.90;;
22652;SDS011;11493;43.344;26.226;2023-04-16T01:33:54;8.00;;;4.72;;
22652;SDS011;11493;43.344;26.226;2023-04-16T01:36:22;8.95;;;5.55;;
22652;SDS011;11493;43.344;26.226;2023-04-16T01:38:49;13.88;;;5.40;;
22652;SDS011;11493;43.344;26.226;2023-04-16T01:41:16;16.08;;;7.85;;
22652;SDS011;11493;43.344;26.226;2023-04-16T01:43:43;17.63;;;9.43;;
22652;SDS011;11493;43.344;26.226;2023-04-16T01:48:43;19.27;;;7.50;;
22652;SDS011;11493;43.344;26.226;2023-04-16T01:51:11;12.80;;;7.30;;
22652;SDS011;11493;43.344;26.226;2023-04-16T01:53:38;9.90;;;5.97;;
22652;SDS011;11493;43.344;26.226;2023-04-16T01:56:05;8.93;;;5.72;;
22652;SDS011;11493;43.344;26.226;2023-04-16T01:58:32;13.30;;;4.85;;
22652;SDS011;11493;43.344;26.226;2023-04-16T02:00:59;10.43;;;5.30;;
22652;SDS011;11493;43.344;26.226;2023-04-16T02:03:27;12.98;;;5.40;;
22652;SDS011;11493;43.344;26.226;2023-04-16T02:05:54;11.98;;;5.32;;
22652;SDS011;11493;43.344;26.226;2023-04-16T02:08:21;6.35;;;4.22;;
22652;SDS011;11493;43.344;26.226;2023-04-16T02:10:49;15.27;;;4.88;;
22652;SDS011;11493;43.344;26.226;2023-04-16T02:13:16;10.10;;;5.20;;
22652;SDS011;11493;43.344;26.226;2023-04-16T02:15:45;18.42;;;5.50;;
22652;SDS011;11493;43.344;26.226;2023-04-16T02:18:18;11.55;;;5.15;;
22652;SDS011;11493;43.344;26.226;2023-04-16T02:20:45;13.52;;;5.13;;
22652;SDS011;11493;43.344;26.226;2023-04-16T02:23:15;12.32;;;4.65;;
22652;SDS011;11493;43.344;26.226;2023-04-16T02:25:44;12.05;;;4.47;;
22652;SDS011;11493;43.344;26.226;2023-04-16T02:28:14;15.07;;;4.97;;
22652;SDS011;11493;43.344;26.226;2023-04-16T02:30:44;10.52;;;4.82;;
22652;SDS011;11493;43.344;26.226;2023-04-16T02:33:13;12.38;;;4.35;;
22652;SDS011;11493;43.344;26.226;2023-04-16T02:35:50;13.52;;;4.70;;
22652;SDS011;11493;43.344;26.226;2023-04-16T02:38:17;10.35;;;5.30;;
22652;SDS011;11493;43.344;26.226;2023-04-16T02:40:44;7.55;;;5.03;;
22652;SDS011;11493;43.344;26.226;2023-04-16T02:43:11;12.65;;;4.10;;
22652;SDS011;11493;43.344;26.226;2023-04-16T02:45:38;17.95;;;5.53;;
22652;SDS011;11493;43.344;26.226;2023-04-16T02:48:06;9.60;;;4.57;;
22652;SDS011;11493;43.344;26.226;2023-04-16T02:50:34;12.52;;;4.97;;
22652;SDS011;11493;43.344;26.226;2023-04-16T02:53:01;10.20;;;5.65;;
22652;SDS011;11493;43.344;26.226;2023-04-16T02:55:29;19.20;;;4.75;;
22652;SDS011;11493;43.344;26.226;2023-04-16T02:57:56;10.60;;;4.80;;
22652;SDS011;11493;43.344;26.226;2023-04-16T03:00:23;12.75;;;4.32;;
22652;SDS011;11493;43.344;26.226;2023-04-16T03:02:51;9.27;;;4.85;;
22652;SDS011;11493;43.344;26.226;2023-04-16T03:05:18;12.25;;;5.00;;
22652;SDS011;11493;43.344;26.226;2023-04-16T03:07:45;17.77;;;5.28;;
22652;SDS011;11493;43.344;26.226;2023-04-16T03:10:13;8.60;;;4.50;;
22652;SDS011;11493;43.344;26.226;2023-04-16T03:12:40;8.18;;;4.82;;
22652;SDS011;11493;43.344;26.226;2023-04-16T03:15:07;10.00;;;5.07;;
22652;SDS011;11493;43.344;26.226;2023-04-16T03:17:35;11.32;;;4.40;;
22652;SDS011;11493;43.344;26.226;2023-04-16T03:20:02;17.13;;;5.10;;
22652;SDS011;11493;43.344;26.226;2023-04-16T03:22:30;12.23;;;4.57;;
22652;SDS011;11493;43.344;26.226;2023-04-16T03:24:57;15.93;;;5.57;;
22652;SDS011;11493;43.344;26.226;2023-04-16T03:27:24;14.18;;;6.55;;
22652;SDS011;11493;43.344;26.226;2023-04-16T03:29:51;12.43;;;6.35;;
22652;SDS011;11493;43.344;26.226;2023-04-16T03:32:19;14.32;;;7.20;;
22652;SDS011;11493;43.344;26.226;2023-04-16T03:34:46;14.20;;;7.72;;
22652;SDS011;11493;43.344;26.226;2023-04-16T03:37:12;12.88;;;8.07;;
22652;SDS011;11493;43.344;26.226;2023-04-16T03:39:40;12.45;;;8.52;;
22652;SDS011;11493;43.344;26.226;2023-04-16T03:42:09;18.08;;;9.55;;
22652;SDS011;11493;43.344;26.226;2023-04-16T03:44:36;29.15;;;12.95;;
22652;SDS011;11493;43.344;26.226;2023-04-16T03:47:03;30.58;;;20.10;;
22652;SDS011;11493;43.344;26.226;2023-04-16T03:49:30;75.20;;;43.22;;
22652;SDS011;11493;43.344;26.226;2023-04-16T03:51:57;52.30;;;27.73;;
22652;SDS011;11493;43.344;26.226;2023-04-16T03:54:25;35.78;;;19.80;;
22652;SDS011;11493;43.344;26.226;2023-04-16T03:57:04;31.25;;;18.90;;
22652;SDS011;11493;43.344;26.226;2023-04-16T03:59:32;43.17;;;25.95;;
22652;SDS011;11493;43.344;26.226;2023-04-16T04:01:59;41.63;;;23.20;;
22652;SDS011;11493;43.344;26.226;2023-04-16T04:04:26;28.02;;;15.60;;
22652;SDS011;11493;43.344;26.226;2023-04-16T04:06:53;35.05;;;17.50;;
22652;SDS011;11493;43.344;26.226;2023-04-16T04:09:21;33.65;;;17.30;;
22652;SDS011;11493;43.344;26.226;2023-04-16T04:11:49;23.63;;;14.55;;
22652;SDS011;11493;43.344;26.226;2023-04-16T04:14:16;28.13;;;14.73;;
22652;SDS011;11493;43.344;26.226;2023-04-16T04:16:43;24.70;;;13.38;;
22652;SDS011;11493;43.344;26.226;2023-04-16T04:19:10;21.00;;;14.35;;
22652;SDS011;11493;43.344;26.226;2023-04-16T04:21:38;26.95;;;12.77;;
22652;SDS011;11493;43.344;26.226;2023-04-16T04:24:05;20.27;;;12.48;;
22652;SDS011;11493;43.344;26.226;2023-04-16T04:26:32;21.38;;;13.30;;
22652;SDS011;11493;43.344;26.226;2023-04-16T04:28:59;21.33;;;12.75;;
22652;SDS011;11493;43.344;26.226;2023-04-16T04:31:28;25.10;;;13.18;;
22652;SDS011;11493;43.344;26.226;2023-04-16T04:33:55;28.77;;;12.45;;
22652;SDS011;11493;43.344;26.226;2023-04-16T04:36:22;21.45;;;11.93;;
22652;SDS011;11493;43.344;26.226;2023-04-16T04:38:50;29.10;;;14.52;;
22652;SDS011;11493;43.344;26.226;2023-04-16T04:41:18;42.60;;;21.88;;
22652;SDS011;11493;43.344;26.226;2023-04-16T04:43:45;32.95;;;17.92;;
22652;SDS011;11493;43.344;26.226;2023-04-16T04:46:13;38.17;;;18.52;;
22652;SDS011;11493;43.344;26.226;2023-04-16T04:48:40;29.65;;;16.40;;
22652;SDS011;11493;43.344;26.226;2023-04-16T04:51:07;30.38;;;17.70;;
22652;SDS011;11493;43.344;26.226;2023-04-16T04:53:34;33.22;;;17.77;;
22652;SDS011;11493;43.344;26.226;2023-04-16T04:56:03;37.97;;;19.83;;
22652;SDS011;11493;43.344;26.226;2023-04-16T04:58:39;50.80;;;24.77;;
22652;SDS011;11493;43.344;26.226;2023-04-16T05:01:06;48.20;;;21.83;;
22652;SDS011;11493;43.344;26.226;2023-04-16T05:03:34;46.15;;;22.27;;
22652;SDS011;11493;43.344;26.226;2023-04-16T05:06:01;37.47;;;19.58;;
22652;SDS011;11493;43.344;26.226;2023-04-16T05:08:28;44.30;;;18.23;;
22652;SDS011;11493;43.344;26.226;2023-04-16T05:10:55;39.60;;;17.65;;
22652;SDS011;11493;43.344;26.226;2023-04-16T05:13:22;33.17;;;17.95;;
22652;SDS011;11493;43.344;26.226;2023-04-16T05:15:49;30.65;;;16.85;;
22652;SDS011;11493;43.344;26.226;2023-04-16T05:18:16;28.95;;;14.02;;
22652;SDS011;11493;43.344;26.226;2023-04-16T05:20:43;32.13;;;12.88;;
22652;SDS011;11493;43.344;26.226;2023-04-16T05:23:10;28.90;;;12.50;;
22652;SDS011;11493;43.344;26.226;2023-04-16T05:25:37;35.05;;;9.82;;
22652;SDS011;11493;43.344;26.226;2023-04-16T05:28:04;13.82;;;6.22;;
22652;SDS011;11493;43.344;26.226;2023-04-16T05:30:31;18.08;;;5.75;;
22652;SDS011;11493;43.344;26.226;2023-04-16T05:32:58;17.63;;;5.15;;
22652;SDS011;11493;43.344;26.226;2023-04-16T05:35:25;17.70;;;4.45;;
22652;SDS011;11493;43.344;26.226;2023-04-16T05:37:53;11.45;;;5.10;;
22652;SDS011;11493;43.344;26.226;2023-04-16T05:40:20;9.20;;;4.20;;
22652;SDS011;11493;43.344;26.226;2023-04-16T05:42:47;12.80;;;4.32;;
22652;SDS011;11493;43.344;26.226;2023-04-16T05:45:14;17.40;;;4.70;;
22652;SDS011;11493;43.344;26.226;2023-04-16T05:47:42;12.52;;;4.15;;
22652;SDS011;11493;43.344;26.226;2023-04-16T05:50:09;44.05;;;21.25;;
22652;SDS011;11493;43.344;26.226;2023-04-16T05:52:37;9.48;;;4.85;;
22652;SDS011;11493;43.344;26.226;2023-04-16T05:55:04;18.73;;;4.25;;
22652;SDS011;11493;43.344;26.226;2023-04-16T05:57:32;15.93;;;4.32;;
22652;SDS011;11493;43.344;26.226;2023-04-16T05:59:59;13.57;;;5.03;;
22652;SDS011;11493;43.344;26.226;2023-04-16T06:02:37;24.20;;;6.13;;
22652;SDS011;11493;43.344;26.226;2023-04-16T06:05:04;12.43;;;4.50;;
22652;SDS011;11493;43.344;26.226;2023-04-16T06:07:31;17.58;;;4.38;;
22652;SDS011;11493;43.344;26.226;2023-04-16T06:09:58;12.32;;;4.03;;
22652;SDS011;11493;43.344;26.226;2023-04-16T06:12:25;14.20;;;4.47;;
22652;SDS011;11493;43.344;26.226;2023-04-16T06:14:53;11.38;;;4.57;;
22652;SDS011;11493;43.344;26.226;2023-04-16T06:17:20;19.38;;;5.13;;
22652;SDS011;11493;43.344;26.226;2023-04-16T06:19:48;16.02;;;4.75;;
22652;SDS011;11493;43.344;26.226;2023-04-16T06:22:15;12.02;;;4.53;;
22652;SDS011;11493;43.344;26.226;2023-04-16T06:24:42;13.45;;;4.32;;
22652;SDS011;11493;43.344;26.226;2023-04-16T06:27:09;18.42;;;4.93;;
22652;SDS011;11493;43.344;26.226;2023-04-16T06:29:36;13.23;;;4.82;;
22652;SDS011;11493;43.344;26.226;2023-04-16T06:32:07;14.60;;;3.67;;
22652;SDS011;11493;43.344;26.226;2023-04-16T06:34:34;20.33;;;4.30;;
22652;SDS011;11493;43.344;26.226;2023-04-16T06:37:03;10.90;;;4.38;;
22652;SDS011;11493;43.344;26.226;2023-04-16T06:39:30;22.05;;;4.85;;
22652;SDS011;11493;43.344;26.226;2023-04-16T06:41:57;13.75;;;4.10;;
22652;SDS011;11493;43.344;26.226;2023-04-16T06:44:24;12.38;;;4.35;;
22652;SDS011;11493;43.344;26.226;2023-04-16T06:46:51;13.85;;;4.18;;
22652;SDS011;11493;43.344;26.226;2023-04-16T06:49:19;17.65;;;4.32;;
22652;SDS011;11493;43.344;26.226;2023-04-16T06:51:46;16.65;;;3.88;;
22652;SDS011;11493;43.344;26.226;2023-04-16T06:54:13;14.15;;;4.47;;
22652;SDS011;11493;43.344;26.226;2023-04-16T06:56:41;9.70;;;4.10;;
22652;SDS011;11493;43.344;26.226;2023-04-16T06:59:08;19.63;;;4.30;;
22652;SDS011;11493;43.344;26.226;2023-04-16T07:01:35;17.77;;;5.07;;
22652;SDS011;11493;43.344;26.226;2023-04-16T07:04:02;15.25;;;3.67;;
22652;SDS011;11493;43.344;26.226;2023-04-16T07:06:30;13.70;;;3.45;;
22652;SDS011;11493;43.344;26.226;2023-04-16T07:08:57;11.82;;;3.75;;
22652;SDS011;11493;43.344;26.226;2023-04-16T07:11:24;12.07;;;3.85;;
22652;SDS011;11493;43.344;26.226;2023-04-16T07:13:52;12.18;;;3.88;;
22652;SDS011;11493;43.344;26.226;2023-04-16T07:16:19;14.32;;;3.60;;
22652;SDS011;11493;43.344;26.226;2023-04-16T07:18:46;16.85;;;3.88;;
22652;SDS011;11493;43.344;26.226;2023-04-16T07:21:13;9.48;;;3.53;;
22652;SDS011;11493;43.344;26.226;2023-04-16T07:23:41;23.23;;;7.75;;
22652;SDS011;11493;43.344;26.226;2023-04-16T07:26:08;21.05;;;5.90;;
22652;SDS011;11493;43.344;26.226;2023-04-16T07:28:35;16.48;;;3.05;;
22652;SDS011;11493;43.344;26.226;2023-04-16T07:31:02;15.80;;;4.13;;
22652;SDS011;11493;43.344;26.226;2023-04-16T07:33:29;20.25;;;4.43;;
22652;SDS011;11493;43.344;26.226;2023-04-16T07:35:56;14.95;;;3.22;;
22652;SDS011;11493;43.344;26.226;2023-04-16T07:38:23;15.27;;;4.60;;
22652;SDS011;11493;43.344;26.226;2023-04-16T07:40:50;11.93;;;3.65;;
22652;SDS011;11493;43.344;26.226;2023-04-16T07:43:17;12.68;;;3.67;;
22652;SDS011;11493;43.344;26.226;2023-04-16T07:45:44;20.48;;;3.30;;
22652;SDS011;11493;43.344;26.226;2023-04-16T07:48:11;10.60;;;3.60;;
22652;SDS011;11493;43.344;26.226;2023-04-16T07:50:38;13.07;;;4.53;;
22652;SDS011;11493;43.344;26.226;2023-04-16T07:53:07;8.95;;;3.25;;
22652;SDS011;11493;43.344;26.226;2023-04-16T07:55:34;13.38;;;2.97;;
22652;SDS011;11493;43.344;26.226;2023-04-16T07:58:01;17.00;;;3.85;;
22652;SDS011;11493;43.344;26.226;2023-04-16T08:00:28;16.83;;;4.72;;
22652;SDS011;11493;43.344;26.226;2023-04-16T08:02:55;8.43;;;2.97;;
22652;SDS011;11493;43.344;26.226;2023-04-16T08:05:22;15.93;;;3.13;;
22652;SDS011;11493;43.344;26.226;2023-04-16T08:07:49;11.30;;;3.00;;
22652;SDS011;11493;43.344;26.226;2023-04-16T08:10:16;9.55;;;3.25;;
22652;SDS011;11493;43.344;26.226;2023-04-16T08:12:43;9.55;;;2.90;;
22652;SDS011;11493;43.344;26.226;2023-04-16T08:15:10;19.75;;;3.55;;
22652;SDS011;11493;43.344;26.226;2023-04-16T08:17:37;9.30;;;2.97;;
22652;SDS011;11493;43.344;26.226;2023-04-16T08:20:05;17.00;;;4.57;;
22652;SDS011;11493;43.344;26.226;2023-04-16T08:22:32;12.02;;;2.83;;
22652;SDS011;11493;43.344;26.226;2023-04-16T08:24:59;11.27;;;3.15;;
22652;SDS011;11493;43.344;26.226;2023-04-16T08:27:26;12.00;;;3.13;;
22652;SDS011;11493;43.344;26.226;2023-04-16T08:29:53;10.75;;;3.08;;
22652;SDS011;11493;43.344;26.226;2023-04-16T08:32:20;15.13;;;3.15;;
22652;SDS011;11493;43.344;26.226;2023-04-16T08:34:47;16.45;;;4.85;;
22652;SDS011;11493;43.344;26.226;2023-04-16T08:37:14;19.58;;;3.95;;
22652;SDS011;11493;43.344;26.226;2023-04-16T08:39:41;12.75;;;2.95;;
22652;SDS011;11493;43.344;26.226;2023-04-16T08:42:12;8.15;;;2.40;;
22652;SDS011;11493;43.344;26.226;2023-04-16T08:44:47;14.27;;;2.55;;
22652;SDS011;11493;43.344;26.226;2023-04-16T08:47:16;13.60;;;2.88;;
22652;SDS011;11493;43.344;26.226;2023-04-16T08:49:43;12.57;;;2.50;;
22652;SDS011;11493;43.344;26.226;2023-04-16T08:52:13;8.93;;;3.42;;
22652;SDS011;11493;43.344;26.226;2023-04-16T08:57:25;15.02;;;2.58;;
22652;SDS011;11493;43.344;26.226;2023-04-16T09:00:01;14.30;;;2.50;;
22652;SDS011;11493;43.344;26.226;2023-04-16T09:02:29;15.07;;;3.35;;
22652;SDS011;11493;43.344;26.226;2023-04-16T09:04:57;15.18;;;4.13;;
22652;SDS011;11493;43.344;26.226;2023-04-16T09:07:26;11.93;;;3.30;;
22652;SDS011;11493;43.344;26.226;2023-04-16T09:09:54;11.85;;;2.50;;
22652;SDS011;11493;43.344;26.226;2023-04-16T09:12:26;11.55;;;3.17;;
22652;SDS011;11493;43.344;26.226;2023-04-16T09:14:53;14.73;;;2.97;;
22652;SDS011;11493;43.344;26.226;2023-04-16T09:17:22;13.77;;;3.05;;
22652;SDS011;11493;43.344;26.226;2023-04-16T09:19:49;10.70;;;2.55;;
22652;SDS011;11493;43.344;26.226;2023-04-16T09:22:16;13.18;;;2.78;;
22652;SDS011;11493;43.344;26.226;2023-04-16T09:24:43;10.95;;;3.05;;
22652;SDS011;11493;43.344;26.226;2023-04-16T09:27:11;12.23;;;2.70;;
22652;SDS011;11493;43.344;26.226;2023-04-16T09:29:39;10.57;;;2.78;;
22652;SDS011;11493;43.344;26.226;2023-04-16T09:32:08;11.35;;;2.95;;
22652;SDS011;11493;43.344;26.226;2023-04-16T09:34:52;19.65;;;3.80;;
22652;SDS011;11493;43.344;26.226;2023-04-16T09:37:24;17.17;;;3.22;;
22652;SDS011;11493;43.344;26.226;2023-04-16T09:39:56;12.27;;;3.15;;
22652;SDS011;11493;43.344;26.226;2023-04-16T09:42:27;14.23;;;4.03;;
22652;SDS011;11493;43.344;26.226;2023-04-16T09:44:56;16.48;;;4.07;;
22652;SDS011;11493;43.344;26.226;2023-04-16T09:47:39;19.23;;;5.03;;
22652;SDS011;11493;43.344;26.226;2023-04-16T09:50:13;15.48;;;4.00;;
22652;SDS011;11493;43.344;26.226;2023-04-16T09:52:46;15.40;;;3.42;;
22652;SDS011;11493;43.344;26.226;2023-04-16T09:57:42;14.93;;;3.30;;
22652;SDS011;11493;43.344;26.226;2023-04-16T10:00:09;16.75;;;3.65;;
22652;SDS011;11493;43.344;26.226;2023-04-16T10:02:40;14.25;;;3.08;;
22652;SDS011;11493;43.344;26.226;2023-04-16T10:07:36;11.35;;;3.72;;
22652;SDS011;11493;43.344;26.226;2023-04-16T10:10:03;11.25;;;3.17;;
22652;SDS011;11493;43.344;26.226;2023-04-16T10:12:30;16.55;;;3.10;;
22652;SDS011;11493;43.344;26.226;2023-04-16T10:15:01;9.38;;;2.97;;
22652;SDS011;11493;43.344;26.226;2023-04-16T10:17:28;11.93;;;2.70;;
22652;SDS011;11493;43.344;26.226;2023-04-16T10:19:57;9.70;;;2.85;;
22652;SDS011;11493;43.344;26.226;2023-04-16T10:22:24;12.50;;;2.70;;
22652;SDS011;11493;43.344;26.226;2023-04-16T10:24:52;12.05;;;3.05;;
22652;SDS011;11493;43.344;26.226;2023-04-16T10:27:20;14.35;;;2.85;;
22652;SDS011;11493;43.344;26.226;2023-04-16T10:29:48;12.88;;;2.72;;
22652;SDS011;11493;43.344;26.226;2023-04-16T10:32:16;14.40;;;2.75;;
22652;SDS011;11493;43.344;26.226;2023-04-16T10:34:46;10.57;;;2.85;;
22652;SDS011;11493;43.344;26.226;2023-04-16T10:37:14;8.02;;;2.92;;
22652;SDS011;11493;43.344;26.226;2023-04-16T10:39:43;11.63;;;2.97;;
22652;SDS011;11493;43.344;26.226;2023-04-16T10:42:11;9.27;;;2.88;;
22652;SDS011;11493;43.344;26.226;2023-04-16T10:44:39;6.03;;;2.90;;
22652;SDS011;11493;43.344;26.226;2023-04-16T10:47:11;8.18;;;2.78;;
22652;SDS011;11493;43.344;26.226;2023-04-16T10:49:39;5.70;;;2.65;;
22652;SDS011;11493;43.344;26.226;2023-04-16T10:52:08;9.05;;;2.42;;
22652;SDS011;11493;43.344;26.226;2023-04-16T10:54:37;10.13;;;2.97;;
22652;SDS011;11493;43.344;26.226;2023-04-16T10:57:09;9.70;;;3.33;;
22652;SDS011;11493;43.344;26.226;2023-04-16T10:59:41;8.18;;;3.05;;
22652;SDS011;11493;43.344;26.226;2023-04-16T11:02:13;16.60;;;3.78;;
22652;SDS011;11493;43.344;26.226;2023-04-16T11:04:45;10.15;;;3.10;;
22652;SDS011;11493;43.344;26.226;2023-04-16T11:07:21;7.00;;;2.60;;
22652;SDS011;11493;43.344;26.226;2023-04-16T11:09:59;5.65;;;2.63;;
22652;SDS011;11493;43.344;26.226;2023-04-16T11:12:34;5.65;;;2.40;;
22652;SDS011;11493;43.344;26.226;2023-04-16T11:15:06;8.80;;;2.30;;
22652;SDS011;11493;43.344;26.226;2023-04-16T11:17:37;8.60;;;3.20;;
22652;SDS011;11493;43.344;26.226;2023-04-16T11:20:18;11.23;;;3.83;;
22652;SDS011;11493;43.344;26.226;2023-04-16T11:22:48;7.90;;;3.50;;
22652;SDS011;11493;43.344;26.226;2023-04-16T11:25:20;5.25;;;2.72;;
22652;SDS011;11493;43.344;26.226;2023-04-16T11:27:57;10.85;;;2.15;;
22652;SDS011;11493;43.344;26.226;2023-04-16T11:30:30;7.35;;;1.75;;
22652;SDS011;11493;43.344;26.226;2023-04-16T11:33:02;6.55;;;1.95;;
22652;SDS011;11493;43.344;26.226;2023-04-16T11:35:30;5.88;;;1.65;;
22652;SDS011;11493;43.344;26.226;2023-04-16T11:37:58;6.75;;;2.05;;
22652;SDS011;11493;43.344;26.226;2023-04-16T11:40:28;5.45;;;1.20;;
22652;SDS011;11493;43.344;26.226;2023-04-16T11:43:03;6.68;;;1.30;;
22652;SDS011;11493;43.344;26.226;2023-04-16T11:46:37;3.75;;;1.67;;
22652;SDS011;11493;43.344;26.226;2023-04-16T11:49:31;3.72;;;1.25;;
22652;SDS011;11493;43.344;26.226;2023-04-16T11:51:58;3.33;;;0.90;;
22652;SDS011;11493;43.344;26.226;2023-04-16T11:54:48;2.50;;;0.85;;
22652;SDS011;11493;43.344;26.226;2023-04-16T11:57:22;2.80;;;1.40;;
22652;SDS011;11493;43.344;26.226;2023-04-16T11:59:56;3.13;;;0.98;;
22652;SDS011;11493;43.344;26.226;2023-04-16T12:02:41;2.63;;;0.93;;
22652;SDS011;11493;43.344;26.226;2023-04-16T12:08:05;2.53;;;0.80;;
22652;SDS011;11493;43.344;26.226;2023-04-16T12:10:35;5.18;;;0.90;;
22652;SDS011;11493;43.344;26.226;2023-04-16T12:13:10;1.98;;;0.90;;
22652;SDS011;11493;43.344;26.226;2023-04-16T12:15:48;3.28;;;1.05;;
22652;SDS011;11493;43.344;26.226;2023-04-16T12:18:20;2.90;;;1.00;;
22652;SDS011;11493;43.344;26.226;2023-04-16T12:20:49;2.55;;;1.30;;
22652;SDS011;11493;43.344;26.226;2023-04-16T12:25:51;3.50;;;0.73;;
22652;SDS011;11493;43.344;26.226;2023-04-16T12:28:31;4.30;;;0.90;;
22652;SDS011;11493;43.344;26.226;2023-04-16T12:31:01;1.70;;;0.80;;
22652;SDS011;11493;43.344;26.226;2023-04-16T12:33:29;1.75;;;0.98;;
22652;SDS011;11493;43.344;26.226;2023-04-16T12:35:57;13.30;;;1.85;;
22652;SDS011;11493;43.344;26.226;2023-04-16T12:38:24;2.10;;;1.00;;
22652;SDS011;11493;43.344;26.226;2023-04-16T12:40:52;4.65;;;1.73;;
22652;SDS011;11493;43.344;26.226;2023-04-16T12:43:22;4.18;;;1.20;;
22652;SDS011;11493;43.344;26.226;2023-04-16T12:45:50;2.67;;;1.17;;
22652;SDS011;11493;43.344;26.226;2023-04-16T12:48:16;5.63;;;0.90;;
22652;SDS011;11493;43.344;26.226;2023-04-16T12:50:43;5.93;;;1.20;;
22652;SDS011;11493;43.344;26.226;2023-04-16T12:53:11;4.72;;;1.20;;
22652;SDS011;11493;43.344;26.226;2023-04-16T12:55:38;5.57;;;1.02;;
22652;SDS011;11493;43.344;26.226;2023-04-16T12:58:07;3.22;;;1.20;;
22652;SDS011;11493;43.344;26.226;2023-04-16T13:00:38;7.93;;;1.13;;
22652;SDS011;11493;43.344;26.226;2023-04-16T13:03:05;4.65;;;1.25;;
22652;SDS011;11493;43.344;26.226;2023-04-16T13:05:32;1.98;;;1.15;;
22652;SDS011;11493;43.344;26.226;2023-04-16T13:07:59;2.95;;;1.10;;
22652;SDS011;11493;43.344;26.226;2023-04-16T13:10:27;3.45;;;1.00;;
22652;SDS011;11493;43.344;26.226;2023-04-16T13:12:54;1.67;;;1.40;;
22652;SDS011;11493;43.344;26.226;2023-04-16T13:15:21;6.45;;;1.00;;
22652;SDS011;11493;43.344;26.226;2023-04-16T13:17:48;2.83;;;1.15;;
22652;SDS011;11493;43.344;26.226;2023-04-16T13:20:15;4.78;;;1.13;;
22652;SDS011;11493;43.344;26.226;2023-04-16T13:22:42;3.05;;;1.20;;
22652;SDS011;11493;43.344;26.226;2023-04-16T13:25:09;4.50;;;1.20;;
22652;SDS011;11493;43.344;26.226;2023-04-16T13:27:37;3.75;;;1.00;;
22652;SDS011;11493;43.344;26.226;2023-04-16T13:30:04;1.27;;;0.88;;
22652;SDS011;11493;43.344;26.226;2023-04-16T13:32:31;4.45;;;1.10;;
22652;SDS011;11493;43.344;26.226;2023-04-16T13:38:20;4.35;;;1.20;;
22652;SDS011;11493;43.344;26.226;2023-04-16T13:40:47;15.15;;;1.42;;
22652;SDS011;11493;43.344;26.226;2023-04-16T13:43:14;3.90;;;1.23;;
22652;SDS011;11493;43.344;26.226;2023-04-16T13:45:44;5.88;;;1.42;;
22652;SDS011;11493;43.344;26.226;2023-04-16T13:48:11;4.75;;;1.13;;
22652;SDS011;11493;43.344;26.226;2023-04-16T13:50:38;5.45;;;1.50;;
22652;SDS011;11493;43.344;26.226;2023-04-16T13:53:05;9.98;;;1.67;;
22652;SDS011;11493;43.344;26.226;2023-04-16T13:55:32;3.90;;;1.90;;
22652;SDS011;11493;43.344;26.226;2023-04-16T13:57:59;2.55;;;1.55;;
22652;SDS011;11493;43.344;26.226;2023-04-16T14:00:26;8.48;;;1.80;;
22652;SDS011;11493;43.344;26.226;2023-04-16T14:02:53;4.55;;;1.40;;
22652;SDS011;11493;43.344;26.226;2023-04-16T14:05:21;2.47;;;1.10;;
22652;SDS011;11493;43.344;26.226;2023-04-16T14:07:52;2.67;;;1.30;;
22652;SDS011;11493;43.344;26.226;2023-04-16T14:10:19;5.43;;;1.50;;
22652;SDS011;11493;43.344;26.226;2023-04-16T14:12:47;6.22;;;1.25;;
22652;SDS011;11493;43.344;26.226;2023-04-16T14:15:14;5.30;;;1.33;;
22652;SDS011;11493;43.344;26.226;2023-04-16T14:17:41;3.22;;;1.00;;
22652;SDS011;11493;43.344;26.226;2023-04-16T14:20:09;4.70;;;1.20;;
22652;SDS011;11493;43.344;26.226;2023-04-16T14:22:38;5.32;;;1.10;;
22652;SDS011;11493;43.344;26.226;2023-04-16T14:25:05;5.82;;;1.00;;
22652;SDS011;11493;43.344;26.226;2023-04-16T14:27:33;3.35;;;0.90;;
22652;SDS011;11493;43.344;26.226;2023-04-16T14:30:00;1.95;;;1.00;;
22652;SDS011;11493;43.344;26.226;2023-04-16T14:32:27;3.42;;;1.00;;
22652;SDS011;11493;43.344;26.226;2023-04-16T14:34:54;2.83;;;0.93;;
22652;SDS011;11493;43.344;26.226;2023-04-16T14:37:23;2.15;;;0.70;;
22652;SDS011;11493;43.344;26.226;2023-04-16T14:39:50;3.30;;;1.20;;
22652;SDS011;11493;43.344;26.226;2023-04-16T14:42:17;1.45;;;0.82;;
22652;SDS011;11493;43.344;26.226;2023-04-16T14:44:44;2.67;;;0.90;;
22652;SDS011;11493;43.344;26.226;2023-04-16T14:47:14;3.97;;;1.10;;
22652;SDS011;11493;43.344;26.226;2023-04-16T14:49:41;2.20;;;0.75;;
22652;SDS011;11493;43.344;26.226;2023-04-16T14:52:25;1.83;;;0.90;;
22652;SDS011;11493;43.344;26.226;2023-04-16T14:55:03;2.78;;;1.08;;